MMHO/HMO METAR and TAF weather

Enter ICAO airport designator
Station Type Date Time Source
MMHO METAR 2021/05/10 01:40 UTC NOAA

MMHO 100140Z 25006KT 10SM SKC 33/M03 A2981 RMK ISOL CI HZY


Station Type Date Time Source
MMHO Decoded METAR 2021/05/10 01:40 UTC NOAA

Hermosillo, Son., Mexico (MMHO) 29-04N 110-57W
May 09, 2021 - 09:40 PM EDT / 2021.05.10 0140 UTC
Wind: from the WSW (250 degrees) at 7 MPH (6 KT):0
Visibility: 10 mile(s):0
Sky conditions: clear
Temperature: 91 F (33 C)
Dew Point: 26 F (-3 C)
Relative Humidity: 9%
Pressure (altimeter): 29.81 in. Hg (1009 hPa)
ob: MMHO 100140Z 25006KT 10SM SKC 33/M03 A2981 RMK ISOL CI HZY
cycle: 1

Station Type Date Time Source
MMHO TAF 2021/05/09 18:25 UTC NOAA

TAF MMHO 091617Z 0918/1018 22010KT P6SM SKC
TEMPO 0920/0924 22016KT
FM100300 14004KT P6SM SKC
FM101600 20010KT P6SM SKC

Example: see airport list